Time;durP1;ratioP1;P1;durP2;ratioP2;P2;SDS_P1;SDS_P2;PMS_P1;PMS_P2;Temp;Humidity;BMP_temperature;BMP_pressure;BME280_temperature;BME280_humidity;BME280_pressure;Samples;Min_cycle;Max_cycle;Signal;HPM_P1;HPM_P2
2022/11/23 00:02:20;;;;;;;9.65;5.93;;;;;;;;;;10475374;28;20344;-77
2022/11/23 00:07:20;;;;;;;11.00;6.07;;;;;;;;;;10473183;28;20041;-77
2022/11/23 00:12:20;;;;;;;9.20;5.60;;;;;;;;;;10477294;28;20503;-75
2022/11/23 00:17:21;;;;;;;10.30;6.10;;;;;;;;;;10477523;28;20703;-77
2022/11/23 00:22:22;;;;;;;7.80;5.13;;;;;;;;;;10488391;28;20038;-76
2022/11/23 00:27:22;;;;;;;6.93;5.38;;;;;;;;;;10474402;28;20275;-77
2022/11/23 00:32:23;;;;;;;7.88;4.70;;;;;;;;;;10458303;28;20392;-75
2022/11/23 00:37:23;;;;;;;8.25;5.05;;;;;;;;;;10469440;28;20364;-77
2022/11/23 00:42:24;;;;;;;8.95;5.25;;;;;;;;;;10486860;28;20041;-76
2022/11/23 00:47:24;;;;;;;9.63;5.17;;;;;;;;;;10480704;28;20029;-76
2022/11/23 00:52:24;;;;;;;8.23;5.10;;;;;;;;;;10461255;28;20044;-76
2022/11/23 00:57:25;;;;;;;10.93;5.75;;;;;;;;;;10484407;28;20775;-75
2022/11/23 01:02:25;;;;;;;6.90;5.07;;;;;;;;;;10465586;28;20032;-76
2022/11/23 01:07:29;;;;;;;7.70;5.03;;;;;;;;;;10468620;28;20033;-75
2022/11/23 01:12:30;;;;;;;12.73;5.22;;;;;;;;;;10463749;28;20110;-77
2022/11/23 01:17:31;;;;;;;8.60;5.25;;;;;;;;;;10480755;28;20484;-75
2022/11/23 01:22:31;;;;;;;7.37;5.33;;;;;;;;;;10480369;28;20060;-76
2022/11/23 01:27:31;;;;;;;7.50;5.30;;;;;;;;;;10460450;28;20352;-77
2022/11/23 01:32:32;;;;;;;6.88;5.32;;;;;;;;;;10481777;28;20659;-77
2022/11/23 01:37:32;;;;;;;8.23;5.90;;;;;;;;;;10488909;28;20028;-75
2022/11/23 01:43:02;;;;;;;7.03;5.30;;;;;;;;;;10479965;28;20293;-74
2022/11/23 01:48:05;;;;;;;12.77;6.25;;;;;;;;;;10446134;28;20282;-76
2022/11/23 01:53:06;;;;;;;9.07;5.18;;;;;;;;;;10455221;28;20048;-75
2022/11/23 01:58:08;;;;;;;11.18;5.88;;;;;;;;;;10482515;28;20468;-74
2022/11/23 02:03:09;;;;;;;11.43;6.38;;;;;;;;;;10458222;28;20040;-76
2022/11/23 02:08:10;;;;;;;10.85;5.72;;;;;;;;;;10464676;28;20048;-76
2022/11/23 02:13:11;;;;;;;8.15;5.68;;;;;;;;;;10467928;28;20040;-76
2022/11/23 02:18:17;;;;;;;10.05;5.43;;;;;;;;;;10461392;28;20064;-77
2022/11/23 02:23:33;;;;;;;7.90;5.70;;;;;;;;;;10478587;28;20369;-76
2022/11/23 02:28:43;;;;;;;10.68;5.30;;;;;;;;;;10460186;28;20381;-77
2022/11/23 02:33:43;;;;;;;7.10;5.28;;;;;;;;;;10479440;28;20133;-76
2022/11/23 02:38:43;;;;;;;13.80;6.43;;;;;;;;;;10483387;28;20447;-75
2022/11/23 02:43:44;;;;;;;10.73;5.85;;;;;;;;;;10486818;28;20275;-75
2022/11/23 02:48:44;;;;;;;8.10;5.82;;;;;;;;;;10474986;28;20040;-75
2022/11/23 02:53:45;;;;;;;8.50;4.70;;;;;;;;;;10466836;28;20047;-75
2022/11/23 02:58:45;;;;;;;8.70;5.67;;;;;;;;;;10482177;28;20064;-75
2022/11/23 03:03:46;;;;;;;7.65;5.20;;;;;;;;;;10460921;28;20293;-75
2022/11/23 03:08:46;;;;;;;9.43;5.53;;;;;;;;;;10439125;28;20124;-75
2022/11/23 03:13:48;;;;;;;8.63;5.38;;;;;;;;;;10462288;28;20802;-75
2022/11/23 03:18:53;;;;;;;7.22;5.82;;;;;;;;;;10482045;28;20036;-75
2022/11/23 03:23:54;;;;;;;8.70;5.43;;;;;;;;;;10465115;28;20107;-74
2022/11/23 03:28:55;;;;;;;10.50;5.38;;;;;;;;;;10463755;28;20047;-75
2022/11/23 03:33:59;;;;;;;9.45;6.13;;;;;;;;;;10464252;28;20075;-77
2022/11/23 03:39:00;;;;;;;10.38;5.97;;;;;;;;;;10477873;28;20051;-77
2022/11/23 03:44:21;;;;;;;9.10;6.00;;;;;;;;;;10494920;28;20033;-74
2022/11/23 03:49:22;;;;;;;7.43;5.32;;;;;;;;;;10465320;28;20044;-76
2022/11/23 03:54:23;;;;;;;11.52;6.20;;;;;;;;;;10489625;28;20164;-76
2022/11/23 03:59:23;;;;;;;10.18;4.85;;;;;;;;;;10469838;28;20044;-76
2022/11/23 04:04:24;;;;;;;5.70;4.77;;;;;;;;;;10467434;28;20033;-76
2022/11/23 04:09:47;;;;;;;8.60;4.90;;;;;;;;;;10485238;28;20797;-75
2022/11/23 04:14:57;;;;;;;6.30;4.93;;;;;;;;;;10466927;28;20455;-74
2022/11/23 04:19:57;;;;;;;8.52;4.53;;;;;;;;;;10484890;28;20120;-77
2022/11/23 04:24:58;;;;;;;8.35;4.30;;;;;;;;;;10469969;28;20040;-74
2022/11/23 04:29:59;;;;;;;6.00;3.97;;;;;;;;;;10456423;28;20143;-75
2022/11/23 04:35:01;;;;;;;11.80;5.15;;;;;;;;;;10467914;28;20049;-76
2022/11/23 04:40:01;;;;;;;12.88;6.63;;;;;;;;;;10453776;28;20454;-76
2022/11/23 04:45:13;;;;;;;10.15;6.00;;;;;;;;;;10464748;28;20068;-75
2022/11/23 04:50:16;;;;;;;9.93;5.47;;;;;;;;;;10451744;28;20106;-76
2022/11/23 04:55:22;;;;;;;6.13;4.30;;;;;;;;;;10471770;28;20662;-75
2022/11/23 05:00:30;;;;;;;6.95;4.30;;;;;;;;;;10444714;28;20037;-76
2022/11/23 05:05:31;;;;;;;9.55;5.07;;;;;;;;;;10464755;28;20036;-76
2022/11/23 05:10:33;;;;;;;5.82;4.60;;;;;;;;;;10469500;28;20057;-76
2022/11/23 05:15:33;;;;;;;7.57;4.90;;;;;;;;;;10482449;28;20047;-75
2022/11/23 05:20:34;;;;;;;7.85;5.22;;;;;;;;;;10469010;28;20467;-76
2022/11/23 05:25:34;;;;;;;8.15;5.47;;;;;;;;;;10478695;28;20024;-75
2022/11/23 05:30:37;;;;;;;8.57;5.47;;;;;;;;;;10460738;28;20186;-75
2022/11/23 05:35:39;;;;;;;11.80;6.55;;;;;;;;;;10484129;28;20052;-74
2022/11/23 05:40:39;;;;;;;7.47;5.07;;;;;;;;;;10464163;28;20040;-76
2022/11/23 05:45:42;;;;;;;7.43;5.13;;;;;;;;;;10468524;28;20040;-75
2022/11/23 05:50:43;;;;;;;6.70;4.47;;;;;;;;;;10472930;28;20072;-77
2022/11/23 05:56:07;;;;;;;7.60;4.65;;;;;;;;;;10464921;28;20056;-76
2022/11/23 06:01:17;;;;;;;8.30;4.72;;;;;;;;;;10472719;28;20127;-77
2022/11/23 06:06:17;;;;;;;6.65;4.72;;;;;;;;;;10480234;28;20052;-77
2022/11/23 06:11:19;;;;;;;7.35;4.78;;;;;;;;;;10485546;28;20522;-77
2022/11/23 06:16:20;;;;;;;9.23;4.95;;;;;;;;;;10462357;28;20040;-78
2022/11/23 06:21:34;;;;;;;;;;;;;;;;;;10469185;28;20029;-78
2022/11/23 06:26:34;;;;;;;8.27;4.90;;;;;;;;;;10490897;28;20743;-78
2022/11/23 06:31:35;;;;;;;7.10;4.63;;;;;;;;;;10477555;28;20025;-75
2022/11/23 06:36:36;;;;;;;8.85;5.18;;;;;;;;;;10525627;28;20024;-78
2022/11/23 06:41:36;;;;;;;10.93;6.03;;;;;;;;;;10509277;28;20028;-76
2022/11/23 06:46:37;;;;;;;12.15;5.07;;;;;;;;;;10508135;28;20064;-76
2022/11/23 06:51:37;;;;;;;8.07;5.40;;;;;;;;;;10475247;28;20141;-75
2022/11/23 06:56:38;;;;;;;10.65;5.43;;;;;;;;;;10483030;28;20040;-76
2022/11/23 07:01:39;;;;;;;9.43;5.70;;;;;;;;;;10466454;28;20041;-76
2022/11/23 07:06:42;;;;;;;7.70;5.90;;;;;;;;;;10473060;28;20037;-77
2022/11/23 07:11:53;;;;;;;7.25;6.18;;;;;;;;;;10469859;28;20056;-76
2022/11/23 07:16:53;;;;;;;10.52;6.30;;;;;;;;;;10488170;28;20047;-77
2022/11/23 07:21:53;;;;;;;8.80;5.13;;;;;;;;;;10482322;28;20039;-77
2022/11/23 07:26:54;;;;;;;12.38;5.38;;;;;;;;;;10476004;28;20032;-75
2022/11/23 07:31:55;;;;;;;6.97;4.57;;;;;;;;;;10493616;28;20040;-75
2022/11/23 07:36:58;;;;;;;10.57;5.22;;;;;;;;;;10473607;28;20328;-77
2022/11/23 07:41:58;;;;;;;10.27;5.80;;;;;;;;;;10462597;28;20106;-75
2022/11/23 07:47:04;;;;;;;7.13;5.20;;;;;;;;;;10488343;28;20033;-76
2022/11/23 07:52:04;;;;;;;12.47;4.93;;;;;;;;;;10485183;28;20044;-77
2022/11/23 07:57:04;;;;;;;10.20;5.57;;;;;;;;;;10486438;28;20365;-76
2022/11/23 08:02:05;;;;;;;10.35;5.03;;;;;;;;;;10483687;28;20453;-76
2022/11/23 08:07:05;;;;;;;11.30;5.85;;;;;;;;;;10485525;28;20044;-76
2022/11/23 08:12:06;;;;;;;10.10;5.00;;;;;;;;;;10459098;28;20044;-77
2022/11/23 08:17:06;;;;;;;9.57;5.28;;;;;;;;;;10490735;28;20089;-76
2022/11/23 08:22:07;;;;;;;7.65;5.25;;;;;;;;;;10469879;28;20036;-76
2022/11/23 08:27:07;;;;;;;8.17;5.00;;;;;;;;;;10486685;28;20040;-76
2022/11/23 08:32:08;;;;;;;9.70;5.70;;;;;;;;;;10493849;28;20318;-75
2022/11/23 08:37:08;;;;;;;9.50;4.97;;;;;;;;;;10483416;28;20041;-76
2022/11/23 08:42:08;;;;;;;7.38;5.07;;;;;;;;;;10495146;28;20279;-76
2022/11/23 08:47:09;;;;;;;8.30;4.70;;;;;;;;;;10468667;28;20096;-76
2022/11/23 08:52:10;;;;;;;7.18;4.72;;;;;;;;;;10472215;28;20059;-77
2022/11/23 08:57:10;;;;;;;5.80;4.60;;;;;;;;;;10470407;28;20036;-77
2022/11/23 09:02:11;;;;;;;7.63;4.50;;;;;;;;;;10457946;28;20333;-75
2022/11/23 09:07:12;;;;;;;7.05;5.45;;;;;;;;;;10482510;28;20639;-75
2022/11/23 09:12:12;;;;;;;7.70;4.28;;;;;;;;;;10478340;28;20040;-76
2022/11/23 09:17:12;;;;;;;6.60;4.30;;;;;;;;;;10469770;28;20040;-76
2022/11/23 09:22:13;;;;;;;7.47;4.72;;;;;;;;;;10475358;28;20037;-77
2022/11/23 09:27:13;;;;;;;6.70;5.05;;;;;;;;;;10483866;28;20059;-76
2022/11/23 09:32:14;;;;;;;7.63;5.03;;;;;;;;;;10484825;28;20049;-76
2022/11/23 09:37:14;;;;;;;7.82;4.53;;;;;;;;;;10481084;28;20028;-77
2022/11/23 09:42:21;;;;;;;7.00;4.43;;;;;;;;;;10468480;28;20143;-76
2022/11/23 09:47:21;;;;;;;8.68;4.40;;;;;;;;;;10459332;28;20045;-75
2022/11/23 09:52:22;;;;;;;7.67;4.70;;;;;;;;;;10479384;28;20563;-76
2022/11/23 09:57:24;;;;;;;9.13;4.68;;;;;;;;;;10486935;28;20303;-77
2022/11/23 10:02:27;;;;;;;8.68;4.88;;;;;;;;;;10487407;28;20047;-76
2022/11/23 10:07:34;;;;;;;5.95;4.03;;;;;;;;;;10467895;28;20126;-78
2022/11/23 10:12:51;;;;;;;6.35;4.70;;;;;;;;;;10466280;28;20143;-77
2022/11/23 10:17:55;;;;;;;6.65;4.47;;;;;;;;;;10477243;28;20036;-79
2022/11/23 10:22:55;;;;;;;;;;;;;;;;;;10504263;28;20050;-76
2022/11/23 10:27:58;;;;;;;8.38;5.40;;;;;;;;;;10496838;28;19952;-77
2022/11/23 10:33:09;;;;;;;10.13;4.93;;;;;;;;;;10516960;28;20131;-76
2022/11/23 10:38:15;;;;;;;7.22;4.60;;;;;;;;;;10487800;28;20345;-76
2022/11/23 10:43:21;;;;;;;8.60;4.50;;;;;;;;;;10514162;28;20032;-80
2022/11/23 10:48:34;;;;;;;7.70;4.50;;;;;;;;;;10497669;28;20039;-80
2022/11/23 10:53:35;;;;;;;6.70;4.65;;;;;;;;;;10468003;28;20045;-79
2022/11/23 10:58:43;;;;;;;12.48;4.57;;;;;;;;;;10501580;28;20060;-80
2022/11/23 11:03:44;;;;;;;7.93;4.25;;;;;;;;;;10512298;28;20028;-80
2022/11/23 11:08:48;;;;;;;6.80;4.57;;;;;;;;;;10534413;28;20020;-80
2022/11/23 11:13:49;;;;;;;8.32;4.40;;;;;;;;;;10514921;28;20084;-80
2022/11/23 11:18:50;;;;;;;7.80;4.28;;;;;;;;;;10486644;28;20087;-80
2022/11/23 11:23:53;;;;;;;7.45;4.28;;;;;;;;;;10458440;28;20044;-81
2022/11/23 11:28:55;;;;;;;9.50;4.18;;;;;;;;;;10485531;28;20555;-80
2022/11/23 11:34:10;;;;;;;8.30;4.82;;;;;;;;;;10483467;28;20044;-78
2022/11/23 11:39:17;;;;;;;8.13;2.95;;;;;;;;;;10488424;28;20118;-77
2022/11/23 11:44:24;;;;;;;5.25;2.50;;;;;;;;;;10479538;28;20041;-80
2022/11/23 11:49:28;;;;;;;3.53;2.10;;;;;;;;;;10483471;28;20037;-79
2022/11/23 11:54:34;;;;;;;4.53;2.63;;;;;;;;;;10478106;28;20050;-81
2022/11/23 11:59:41;;;;;;;3.75;2.40;;;;;;;;;;10481764;28;20040;-79
2022/11/23 12:04:44;;;;;;;6.35;2.20;;;;;;;;;;10490116;28;20036;-81
2022/11/23 12:09:46;;;;;;;4.40;2.75;;;;;;;;;;10492703;28;20033;-80
2022/11/23 12:14:47;;;;;;;4.60;2.55;;;;;;;;;;10493671;28;20147;-80
2022/11/23 12:19:53;;;;;;;5.90;2.70;;;;;;;;;;10492581;28;20139;-78
2022/11/23 12:25:13;;;;;;;11.73;2.80;;;;;;;;;;10499338;28;20334;-81
2022/11/23 12:30:21;;;;;;;5.15;2.50;;;;;;;;;;10500004;28;20041;-79
2022/11/23 12:35:38;;;;;;;6.18;2.20;;;;;;;;;;10495021;28;20160;-81
2022/11/23 12:40:45;;;;;;;4.97;2.60;;;;;;;;;;10504515;28;20036;-82
2022/11/23 12:45:54;;;;;;;3.70;2.38;;;;;;;;;;10487565;28;20040;-83
2022/11/23 12:51:02;;;;;;;6.93;2.83;;;;;;;;;;10503968;28;20025;-81
2022/11/23 12:56:08;;;;;;;4.95;2.75;;;;;;;;;;10504526;28;20125;-81
2022/11/23 13:01:08;;;;;;;8.65;3.78;;;;;;;;;;10486891;28;20037;-79
2022/11/23 13:06:27;;;;;;;8.35;2.70;;;;;;;;;;10460918;28;20047;-80
2022/11/23 13:11:37;;;;;;;6.15;2.75;;;;;;;;;;10485996;28;20036;-80
2022/11/23 13:16:37;;;;;;;3.85;2.17;;;;;;;;;;10489389;28;20043;-80
2022/11/23 13:21:39;;;;;;;4.22;1.95;;;;;;;;;;10467520;28;20458;-80
2022/11/23 13:26:39;;;;;;;5.43;1.70;;;;;;;;;;10482597;28;20092;-82
2022/11/23 13:31:39;;;;;;;3.97;1.90;;;;;;;;;;10464398;28;20047;-79
2022/11/23 13:36:42;;;;;;;5.73;1.80;;;;;;;;;;10466284;28;20368;-80
2022/11/23 13:42:00;;;;;;;6.38;2.13;;;;;;;;;;10483792;28;20029;-82
2022/11/23 13:47:05;;;;;;;3.63;1.88;;;;;;;;;;10485419;28;20075;-81
2022/11/23 13:52:19;;;;;;;7.75;1.92;;;;;;;;;;10480919;28;20047;-80
2022/11/23 13:57:19;;;;;;;3.53;1.80;;;;;;;;;;10474465;28;20094;-81
2022/11/23 14:02:27;;;;;;;3.28;1.85;;;;;;;;;;10486724;28;20071;-82
2022/11/23 14:07:41;;;;;;;3.05;1.85;;;;;;;;;;10519784;28;20038;-82
2022/11/23 14:12:49;;;;;;;5.85;1.80;;;;;;;;;;10507309;28;20052;-81
2022/11/23 14:18:03;;;;;;;3.80;2.00;;;;;;;;;;10527665;28;20009;-83
2022/11/23 14:23:03;;;;;;;;;;;;;;;;;;10527896;28;20032;-82
2022/11/23 14:28:07;;;;;;;3.97;2.00;;;;;;;;;;10531312;28;19959;-81
2022/11/23 14:33:13;;;;;;;3.08;2.15;;;;;;;;;;10475277;28;20055;-81
2022/11/23 14:38:30;;;;;;;3.95;2.25;;;;;;;;;;10472157;28;20045;-80
2022/11/23 14:43:32;;;;;;;7.95;2.88;;;;;;;;;;10481301;28;20028;-81
2022/11/23 14:48:33;;;;;;;4.25;2.17;;;;;;;;;;10483225;28;20033;-81
2022/11/23 14:53:40;;;;;;;4.33;2.20;;;;;;;;;;10482492;28;20048;-82
2022/11/23 14:58:40;;;;;;;3.65;2.22;;;;;;;;;;10477304;28;20604;-81
2022/11/23 15:03:41;;;;;;;8.68;2.85;;;;;;;;;;10446249;28;20112;-80
2022/11/23 15:08:41;;;;;;;4.47;2.55;;;;;;;;;;10453589;28;20040;-80
2022/11/23 15:13:46;;;;;;;5.67;3.00;;;;;;;;;;10497629;28;20104;-79
2022/11/23 15:18:46;;;;;;;6.07;3.03;;;;;;;;;;10504790;28;20108;-80
2022/11/23 15:23:48;;;;;;;5.90;3.28;;;;;;;;;;10491900;28;20041;-81
2022/11/23 15:28:49;;;;;;;8.52;3.17;;;;;;;;;;10485146;28;20070;-81
2022/11/23 15:33:51;;;;;;;6.20;3.22;;;;;;;;;;10478713;28;20048;-81
2022/11/23 15:38:52;;;;;;;8.00;4.35;;;;;;;;;;10488378;28;20037;-81
2022/11/23 15:43:56;;;;;;;5.32;4.28;;;;;;;;;;10493705;28;20037;-81
2022/11/23 15:48:59;;;;;;;7.88;3.88;;;;;;;;;;10483623;28;20052;-81
2022/11/23 15:54:00;;;;;;;8.15;4.22;;;;;;;;;;10504609;28;20127;-81
2022/11/23 15:59:16;;;;;;;11.52;4.97;;;;;;;;;;10534766;28;20128;-81
2022/11/23 16:04:25;;;;;;;10.05;4.72;;;;;;;;;;10522276;28;20068;-80
2022/11/23 16:09:38;;;;;;;6.43;3.95;;;;;;;;;;10495292;28;20035;-81
2022/11/23 16:14:41;;;;;;;10.02;4.65;;;;;;;;;;10492117;28;20053;-82
2022/11/23 16:19:52;;;;;;;7.70;4.30;;;;;;;;;;10477102;28;20047;-80
2022/11/23 16:24:57;;;;;;;8.18;5.22;;;;;;;;;;10481818;28;20082;-79
2022/11/23 16:30:02;;;;;;;7.97;4.70;;;;;;;;;;10494132;28;20071;-78
2022/11/23 16:35:18;;;;;;;9.45;4.88;;;;;;;;;;10467734;28;20515;-79
2022/11/23 16:40:18;;;;;;;11.02;6.38;;;;;;;;;;10481820;28;20053;-79
2022/11/23 16:45:19;;;;;;;7.05;4.85;;;;;;;;;;10492155;28;20399;-79
2022/11/23 16:50:21;;;;;;;9.93;5.50;;;;;;;;;;10492947;28;20499;-79
2022/11/23 16:55:22;;;;;;;10.23;6.20;;;;;;;;;;10492080;28;20044;-79
2022/11/23 17:00:22;;;;;;;10.00;6.35;;;;;;;;;;10479462;28;20045;-80
2022/11/23 17:10:43;;;;;;;13.52;7.47;;;;;;;;;;10488805;28;20106;-81
2022/11/23 17:15:43;;;;;;;10.75;7.40;;;;;;;;;;10468294;28;20048;-79
2022/11/23 17:20:43;;;;;;;11.88;7.90;;;;;;;;;;10454880;28;20115;-82
2022/11/23 17:25:44;;;;;;;12.10;8.02;;;;;;;;;;10473487;28;20032;-78
2022/11/23 17:30:44;;;;;;;11.27;8.30;;;;;;;;;;10477669;28;20040;-81
2022/11/23 17:35:45;;;;;;;11.15;8.05;;;;;;;;;;10511787;28;20032;-81
2022/11/23 17:40:45;;;;;;;15.25;9.50;;;;;;;;;;10518596;28;20033;-79
2022/11/23 17:45:47;;;;;;;15.43;9.15;;;;;;;;;;10497656;28;20060;-81
2022/11/23 17:50:47;;;;;;;12.30;8.98;;;;;;;;;;10585357;22;20050;-80
2022/11/23 17:55:48;;;;;;;14.00;10.17;;;;;;;;;;10460228;28;20030;-80
2022/11/23 18:00:48;;;;;;;14.32;10.00;;;;;;;;;;10477395;28;20307;-81
2022/11/23 18:05:49;;;;;;;14.45;10.13;;;;;;;;;;10491181;28;20018;-80
2022/11/23 18:10:49;;;;;;;18.08;10.55;;;;;;;;;;10492993;28;20075;-79
2022/11/23 18:15:49;;;;;;;14.77;9.33;;;;;;;;;;10462611;28;20029;-78
2022/11/23 18:20:50;;;;;;;15.35;10.98;;;;;;;;;;10490250;28;20366;-80
2022/11/23 18:26:00;;;;;;;13.98;9.65;;;;;;;;;;10494334;28;20032;-81
2022/11/23 18:31:00;;;;;;;16.23;11.93;;;;;;;;;;10469809;28;20392;-82
2022/11/23 18:36:01;;;;;;;16.02;12.13;;;;;;;;;;10470764;28;20068;-80
2022/11/23 18:41:01;;;;;;;21.35;13.02;;;;;;;;;;10460959;28;20040;-82
2022/11/23 18:46:06;;;;;;;16.50;11.65;;;;;;;;;;10470809;28;20133;-84
2022/11/23 18:51:10;;;;;;;15.93;11.25;;;;;;;;;;10492751;28;20052;-83
2022/11/23 18:56:11;;;;;;;17.85;12.10;;;;;;;;;;10475637;28;20048;-82
2022/11/23 19:01:13;;;;;;;17.80;11.95;;;;;;;;;;10484281;28;20080;-80
2022/11/23 19:06:16;;;;;;;18.67;12.65;;;;;;;;;;10450489;28;20454;-80
2022/11/23 19:11:18;;;;;;;20.53;12.27;;;;;;;;;;10436206;28;20450;-81
2022/11/23 19:16:23;;;;;;;21.60;13.93;;;;;;;;;;10421761;28;20049;-80
2022/11/23 19:21:24;;;;;;;20.25;14.38;;;;;;;;;;10482261;28;20123;-80
2022/11/23 19:26:26;;;;;;;19.48;14.07;;;;;;;;;;10489920;28;20085;-79
2022/11/23 19:31:27;;;;;;;20.92;13.40;;;;;;;;;;10455022;28;20043;-80
2022/11/23 19:36:28;;;;;;;21.75;14.40;;;;;;;;;;10469856;28;20072;-80
2022/11/23 19:41:30;;;;;;;21.98;15.27;;;;;;;;;;10468005;28;20034;-80
2022/11/23 19:46:32;;;;;;;24.52;15.75;;;;;;;;;;10459224;28;20433;-80
2022/11/23 19:51:33;;;;;;;23.30;15.25;;;;;;;;;;10470188;28;20036;-79
2022/11/23 19:56:36;;;;;;;25.73;15.32;;;;;;;;;;10469577;28;20048;-81
2022/11/23 20:01:36;;;;;;;30.33;17.55;;;;;;;;;;10485878;28;20029;-81
2022/11/23 20:06:38;;;;;;;24.80;15.40;;;;;;;;;;10478760;28;20028;-80
2022/11/23 20:11:39;;;;;;;28.05;17.05;;;;;;;;;;10481418;28;20110;-79
2022/11/23 20:16:39;;;;;;;30.50;18.02;;;;;;;;;;10460137;28;20049;-78
2022/11/23 20:21:39;;;;;;;30.48;18.63;;;;;;;;;;10451545;28;20048;-78
2022/11/23 20:26:41;;;;;;;37.88;20.48;;;;;;;;;;10451155;28;20489;-80
2022/11/23 20:31:41;;;;;;;30.40;18.10;;;;;;;;;;10461505;28;20044;-79
2022/11/23 20:36:42;;;;;;;38.35;20.13;;;;;;;;;;10495823;28;20028;-79
2022/11/23 20:41:42;;;;;;;32.40;18.63;;;;;;;;;;10481737;28;20068;-80
2022/11/23 20:46:42;;;;;;;35.23;20.57;;;;;;;;;;10499782;28;20021;-81
2022/11/23 20:51:43;;;;;;;36.50;19.10;;;;;;;;;;10463770;28;20287;-81
2022/11/23 20:56:43;;;;;;;37.83;19.57;;;;;;;;;;10475267;28;20039;-80
2022/11/23 21:01:45;;;;;;;40.38;20.25;;;;;;;;;;10473793;28;20278;-80
2022/11/23 21:06:45;;;;;;;39.83;21.30;;;;;;;;;;10476221;28;20044;-81
2022/11/23 21:17:06;;;;;;;38.33;20.23;;;;;;;;;;10475980;28;20037;-80
2022/11/23 21:22:10;;;;;;;45.92;21.42;;;;;;;;;;10451232;28;20048;-80
2022/11/23 21:27:11;;;;;;;39.33;21.30;;;;;;;;;;10475196;28;20057;-80
2022/11/23 21:32:13;;;;;;;41.60;22.35;;;;;;;;;;10453750;28;20064;-80
2022/11/23 21:37:14;;;;;;;40.33;20.98;;;;;;;;;;10466894;28;20115;-81
2022/11/23 21:42:15;;;;;;;42.72;21.50;;;;;;;;;;10485688;28;20037;-79
2022/11/23 21:47:16;;;;;;;40.78;21.20;;;;;;;;;;10493194;28;20101;-80
2022/11/23 21:52:17;;;;;;;41.83;21.75;;;;;;;;;;10495497;28;20036;-82
2022/11/23 21:57:18;;;;;;;34.08;19.83;;;;;;;;;;10492766;28;20059;-79
2022/11/23 22:02:18;;;;;;;40.10;21.57;;;;;;;;;;10496125;28;20040;-81
2022/11/23 22:07:19;;;;;;;44.05;22.23;;;;;;;;;;10464744;28;20287;-80
2022/11/23 22:12:20;;;;;;;46.70;21.60;;;;;;;;;;10449160;28;20047;-80
2022/11/23 22:17:23;;;;;;;42.87;21.43;;;;;;;;;;10446614;28;20081;-79
2022/11/23 22:22:24;;;;;;;39.63;20.70;;;;;;;;;;10437028;28;20505;-79
2022/11/23 22:27:25;;;;;;;39.33;20.33;;;;;;;;;;10454057;28;20037;-80
2022/11/23 22:32:25;;;;;;;40.88;20.63;;;;;;;;;;10442461;28;20041;-79
2022/11/23 22:37:28;;;;;;;38.88;19.73;;;;;;;;;;10431636;28;20415;-78
2022/11/23 22:42:29;;;;;;;38.17;20.52;;;;;;;;;;10418864;28;20120;-82
2022/11/23 22:47:29;;;;;;;40.35;22.23;;;;;;;;;;10444670;28;20116;-81
2022/11/23 22:52:30;;;;;;;41.00;20.05;;;;;;;;;;10474962;28;20045;-79
2022/11/23 22:57:31;;;;;;;34.95;18.10;;;;;;;;;;10464522;28;20087;-79
2022/11/23 23:02:33;;;;;;;30.27;16.08;;;;;;;;;;10457756;28;20033;-80
2022/11/23 23:07:33;;;;;;;29.83;16.50;;;;;;;;;;10453055;28;20091;-78
2022/11/23 23:12:34;;;;;;;32.80;16.67;;;;;;;;;;10480206;28;20306;-80
2022/11/23 23:17:34;;;;;;;32.30;17.42;;;;;;;;;;10446986;28;20068;-82
2022/11/23 23:22:38;;;;;;;25.52;14.52;;;;;;;;;;10412142;28;20029;-80
2022/11/23 23:27:38;;;;;;;29.33;15.97;;;;;;;;;;10432423;28;20452;-82
2022/11/23 23:32:39;;;;;;;25.20;14.57;;;;;;;;;;10406635;28;20091;-82
2022/11/23 23:37:41;;;;;;;28.60;15.55;;;;;;;;;;10441106;28;20029;-80
2022/11/23 23:42:42;;;;;;;23.85;14.07;;;;;;;;;;10423088;28;20040;-81
2022/11/23 23:47:43;;;;;;;27.10;15.60;;;;;;;;;;10425260;28;20514;-81
2022/11/23 23:52:44;;;;;;;25.38;15.23;;;;;;;;;;10408956;28;20139;-80
2022/11/23 23:57:45;;;;;;;30.73;15.40;;;;;;;;;;10464926;28;20037;-79
